Time;durP1;ratioP1;P1;durP2;ratioP2;P2;SDS_P1;SDS_P2;PMS_P1;PMS_P2;Temp;Humidity;BMP_temperature;BMP_pressure;BME280_temperature;BME280_humidity;BME280_pressure;Samples;Min_cycle;Max_cycle;Signal;HPM_P1;HPM_P2
2021/11/04 00:00:18;;;;;;;18.53;11.93;;;7.90;99.90;;;;;;5074292;28;20428;-88
2021/11/04 00:02:44;;;;;;;19.07;13.60;;;7.90;99.90;;;;;;5072514;28;21054;-89
2021/11/04 00:05:12;;;;;;;17.70;11.87;;;7.90;99.90;;;;;;5073350;28;20422;-89
2021/11/04 00:07:38;;;;;;;23.50;14.23;;;7.90;99.90;;;;;;5056161;28;20854;-89
2021/11/04 00:10:05;;;;;;;19.23;11.80;;;7.80;99.90;;;;;;5073712;28;20505;-87
2021/11/04 00:12:31;;;;;;;18.10;11.23;;;7.80;99.90;;;;;;5055946;28;20802;-88
2021/11/04 00:14:57;;;;;;;20.40;11.80;;;7.90;99.90;;;;;;5055945;28;20480;-88
2021/11/04 00:17:22;;;;;;;21.57;12.93;;;7.90;99.90;;;;;;5073365;28;20223;-88
2021/11/04 00:19:48;;;;;;;18.60;11.00;;;7.80;99.90;;;;;;5073861;28;20171;-87
2021/11/04 00:22:16;;;;;;;20.30;13.50;;;7.80;99.90;;;;;;5072707;28;20192;-88
2021/11/04 00:24:42;;;;;;;19.77;11.43;;;7.80;99.90;;;;;;5073433;28;20179;-88
2021/11/04 00:27:08;;;;;;;18.03;12.60;;;7.80;99.90;;;;;;5073585;28;20555;-87
2021/11/04 00:29:34;;;;;;;17.53;12.10;;;7.90;99.90;;;;;;5073540;28;20175;-88
2021/11/04 00:32:00;;;;;;;20.53;11.80;;;7.90;99.90;;;;;;5055678;28;20496;-86
2021/11/04 00:34:26;;;;;;;20.57;13.00;;;7.90;99.90;;;;;;5073579;28;20433;-88
2021/11/04 00:36:52;;;;;;;18.30;10.70;;;7.90;99.90;;;;;;5073563;28;20412;-88
2021/11/04 00:39:17;;;;;;;21.37;13.77;;;7.80;99.90;;;;;;5073343;28;20425;-88
2021/11/04 00:41:43;;;;;;;20.20;12.60;;;7.80;99.90;;;;;;5055630;28;20174;-88
2021/11/04 00:44:10;;;;;;;17.87;12.60;;;7.80;99.90;;;;;;5055892;28;20230;-88
2021/11/04 00:46:36;;;;;;;17.73;12.63;;;7.70;99.90;;;;;;5073286;28;20501;-88
2021/11/04 00:49:02;;;;;;;20.83;11.80;;;7.70;99.90;;;;;;5073393;28;20450;-87
2021/11/04 00:51:28;;;;;;;23.20;13.10;;;7.80;99.90;;;;;;5055305;28;20394;-88
2021/11/04 00:53:54;;;;;;;18.40;12.30;;;7.80;99.90;;;;;;5072893;28;20418;-88
2021/11/04 00:56:20;;;;;;;24.23;14.70;;;7.70;99.90;;;;;;5072905;28;20418;-88
2021/11/04 00:58:49;;;;;;;18.67;12.03;;;7.80;99.90;;;;;;5055234;28;20183;-88
2021/11/04 01:01:16;;;;;;;20.00;13.13;;;7.80;99.90;;;;;;5073229;28;20497;-87
2021/11/04 01:03:42;;;;;;;20.03;12.60;;;7.80;99.90;;;;;;5072864;28;20491;-87
2021/11/04 01:06:08;;;;;;;20.50;13.43;;;7.80;99.90;;;;;;5072967;28;20418;-86
2021/11/04 01:08:33;;;;;;;22.53;12.90;;;7.70;99.90;;;;;;5072659;28;20207;-86
2021/11/04 01:10:59;;;;;;;19.13;13.10;;;7.70;99.90;;;;;;5072918;28;20216;-87
2021/11/04 01:13:24;;;;;;;21.77;14.87;;;7.70;99.90;;;;;;5072739;28;20236;-86
2021/11/04 01:15:50;;;;;;;19.77;13.20;;;7.70;99.90;;;;;;5072876;28;20167;-86
2021/11/04 01:18:15;;;;;;;20.53;11.90;;;7.70;99.90;;;;;;5071896;28;20486;-86
2021/11/04 01:20:41;;;;;;;21.93;13.10;;;7.80;99.90;;;;;;5072581;28;20644;-86
2021/11/04 01:23:06;;;;;;;22.27;15.23;;;7.70;99.90;;;;;;5054245;28;20227;-86
2021/11/04 01:25:32;;;;;;;21.33;13.97;;;7.70;99.90;;;;;;5054838;28;20174;-86
2021/11/04 01:27:57;;;;;;;23.57;12.80;;;7.70;99.90;;;;;;5072750;28;20191;-87
2021/11/04 01:30:23;;;;;;;19.70;13.90;;;7.80;99.90;;;;;;5054761;28;20194;-86
2021/11/04 01:32:49;;;;;;;19.93;12.87;;;7.70;99.90;;;;;;5072634;28;20174;-87
2021/11/04 01:35:14;;;;;;;19.90;13.07;;;7.70;99.90;;;;;;5054707;28;20194;-87
2021/11/04 01:37:40;;;;;;;23.33;14.97;;;7.70;99.90;;;;;;5072653;28;20565;-87
2021/11/04 01:40:06;;;;;;;24.90;13.37;;;7.70;99.90;;;;;;5072272;28;20202;-86
2021/11/04 01:42:32;;;;;;;23.40;13.80;;;7.70;99.90;;;;;;5072562;28;20887;-86
2021/11/04 01:44:58;;;;;;;26.33;15.30;;;7.80;99.90;;;;;;5072696;28;20421;-86
2021/11/04 01:47:23;;;;;;;25.60;13.77;;;7.70;99.90;;;;;;5054383;28;20226;-86
2021/11/04 01:49:49;;;;;;;20.53;12.57;;;7.70;99.90;;;;;;5054475;28;20184;-87
2021/11/04 01:52:15;;;;;;;20.13;11.87;;;7.70;99.90;;;;;;5072374;28;20187;-86
2021/11/04 01:54:41;;;;;;;20.17;13.20;;;7.70;99.90;;;;;;5054387;28;20176;-87
2021/11/04 01:57:07;;;;;;;19.93;13.47;;;7.80;99.90;;;;;;5072255;28;20437;-87
2021/11/04 01:59:32;;;;;;;19.03;12.73;;;7.70;99.90;;;;;;5072454;28;20177;-87
2021/11/04 02:02:04;;;;;;;22.80;13.27;;;7.70;99.90;;;;;;5072362;28;20229;-86
2021/11/04 02:04:37;;;;;;;23.10;12.53;;;7.70;99.90;;;;;;5072107;28;20191;-86
2021/11/04 02:07:09;;;;;;;18.50;12.13;;;7.70;99.90;;;;;;5071187;28;20444;-86
2021/11/04 02:09:47;;;;;;;25.87;14.70;;;7.70;99.90;;;;;;5070771;28;20421;-86
2021/11/04 02:12:20;;;;;;;21.30;13.90;;;7.70;99.90;;;;;;5072324;28;20424;-86
2021/11/04 02:14:53;;;;;;;21.17;12.90;;;7.60;99.90;;;;;;5071051;28;20416;-86
2021/11/04 02:17:19;;;;;;;20.67;13.50;;;7.70;99.90;;;;;;5072248;28;20414;-86
2021/11/04 02:19:51;;;;;;;20.87;13.10;;;7.70;99.90;;;;;;5072097;28;20962;-86
2021/11/04 02:22:42;;;;;;;19.90;12.90;;;7.70;99.90;;;;;;5070982;28;20893;-86
2021/11/04 02:25:23;;;;;;;20.67;12.60;;;7.70;99.90;;;;;;5071923;28;20419;-87
2021/11/04 02:27:52;;;;;;;22.80;15.03;;;7.70;99.90;;;;;;5072206;28;20422;-86
2021/11/04 02:30:19;;;;;;;26.90;13.93;;;7.60;99.90;;;;;;5075740;28;20841;-86
2021/11/04 02:32:45;;;;;;;21.83;12.97;;;7.60;99.90;;;;;;5075723;28;20486;-87
2021/11/04 02:35:12;;;;;;;24.20;14.60;;;7.60;99.90;;;;;;5075525;28;20418;-87
2021/11/04 02:37:39;;;;;;;21.07;12.87;;;7.60;99.90;;;;;;5075689;28;20218;-87
2021/11/04 02:40:06;;;;;;;20.17;13.10;;;7.60;99.90;;;;;;5073855;28;20857;-87
2021/11/04 02:42:32;;;;;;;28.33;15.80;;;7.60;99.90;;;;;;5075494;28;20496;-87
2021/11/04 02:44:58;;;;;;;23.33;13.27;;;7.60;99.90;;;;;;5075466;28;20425;-87
2021/11/04 02:47:24;;;;;;;25.87;14.80;;;7.60;99.90;;;;;;5084388;28;20459;-87
2021/11/04 02:49:52;;;;;;;24.50;15.53;;;7.50;99.90;;;;;;5077552;28;20203;-87
2021/11/04 02:52:17;;;;;;;21.67;14.43;;;7.50;99.90;;;;;;5077428;28;20416;-87
2021/11/04 02:54:54;;;;;;;25.00;14.67;;;7.50;99.90;;;;;;5095206;28;20464;-87
2021/11/04 02:57:20;;;;;;;26.87;15.60;;;7.50;99.90;;;;;;5077173;28;20179;-87
2021/11/04 02:59:47;;;;;;;22.20;14.63;;;7.50;99.90;;;;;;5077454;28;20428;-87
2021/11/04 03:02:13;;;;;;;27.63;15.93;;;7.50;99.90;;;;;;5095563;28;20550;-87
2021/11/04 03:04:38;;;;;;;23.27;14.10;;;7.50;99.90;;;;;;5095531;28;20448;-88
2021/11/04 03:07:04;;;;;;;26.87;16.63;;;7.50;99.90;;;;;;5111503;28;20408;-87
2021/11/04 03:09:29;;;;;;;27.53;14.03;;;7.50;99.90;;;;;;5077215;28;20170;-88
2021/11/04 03:11:55;;;;;;;22.60;14.20;;;7.50;99.90;;;;;;5095965;28;20163;-88
2021/11/04 03:14:21;;;;;;;22.77;15.27;;;7.50;99.90;;;;;;5077458;28;20175;-89
2021/11/04 03:16:50;;;;;;;23.23;13.63;;;7.60;99.90;;;;;;5095579;28;20170;-88
2021/11/04 03:19:18;;;;;;;25.40;14.47;;;7.50;99.90;;;;;;5095358;28;20170;-88
2021/11/04 03:21:47;;;;;;;25.80;16.57;;;7.50;99.90;;;;;;5095152;28;20411;-88
2021/11/04 03:24:18;;;;;;;24.50;17.20;;;7.50;99.90;;;;;;5094723;28;20507;-88
2021/11/04 03:26:48;;;;;;;27.97;15.20;;;7.60;99.90;;;;;;5095136;28;20410;-88
2021/11/04 03:29:15;;;;;;;21.57;14.53;;;7.60;99.90;;;;;;5094891;28;20409;-87
2021/11/04 03:31:42;;;;;;;21.90;15.03;;;7.60;99.90;;;;;;5094916;28;20551;-88
2021/11/04 03:34:09;;;;;;;22.47;14.17;;;7.60;99.90;;;;;;5076886;28;20421;-88
2021/11/04 03:36:36;;;;;;;23.60;15.00;;;7.50;99.90;;;;;;5094726;28;20498;-88
2021/11/04 03:39:04;;;;;;;24.30;13.67;;;7.50;99.90;;;;;;5076143;28;20514;-87
2021/11/04 03:41:30;;;;;;;21.73;12.53;;;7.50;99.90;;;;;;5093870;28;20413;-88
2021/11/04 03:43:56;;;;;;;22.90;13.50;;;7.50;99.90;;;;;;5094538;28;20879;-88
2021/11/04 03:46:22;;;;;;;21.47;13.10;;;7.50;99.90;;;;;;5076251;28;20545;-87
2021/11/04 03:48:49;;;;;;;26.70;14.37;;;7.40;99.90;;;;;;5076404;28;20432;-88
2021/11/04 03:51:16;;;;;;;22.10;13.73;;;7.50;99.90;;;;;;5094414;28;20403;-88
2021/11/04 03:53:42;;;;;;;23.30;14.20;;;7.50;99.90;;;;;;5094119;28;20420;-87
2021/11/04 03:56:08;;;;;;;19.37;13.07;;;7.50;99.90;;;;;;5094464;28;20403;-88
2021/11/04 03:58:38;;;;;;;22.90;14.70;;;7.50;99.90;;;;;;5094372;28;20502;-88
2021/11/04 04:01:04;;;;;;;22.53;13.30;;;7.50;99.90;;;;;;5076285;28;20764;-88
2021/11/04 04:03:30;;;;;;;21.07;13.10;;;7.50;99.90;;;;;;5055192;28;20479;-88
2021/11/04 04:06:04;;;;;;;18.63;12.67;;;7.50;99.90;;;;;;5055362;28;20181;-88
2021/11/04 04:08:31;;;;;;;19.73;10.30;;;7.50;99.90;;;;;;5073668;28;20199;-87
2021/11/04 04:10:57;;;;;;;22.30;13.00;;;7.50;99.90;;;;;;5074306;28;20840;-87
2021/11/04 04:13:23;;;;;;;22.37;14.97;;;7.50;99.90;;;;;;5074568;28;20453;-88
2021/11/04 04:15:48;;;;;;;19.70;11.93;;;7.50;99.90;;;;;;5073862;28;20424;-88
2021/11/04 04:18:14;;;;;;;23.17;12.83;;;7.50;99.90;;;;;;5055778;28;20179;-86
2021/11/04 04:20:40;;;;;;;20.77;11.53;;;7.40;99.90;;;;;;5073643;28;20254;-86
2021/11/04 04:23:05;;;;;;;17.63;11.53;;;7.50;99.90;;;;;;5073154;28;20250;-87
2021/11/04 04:25:31;;;;;;;20.23;12.07;;;7.50;99.90;;;;;;5055608;28;20509;-86
2021/11/04 04:27:58;;;;;;;17.50;11.23;;;7.40;99.90;;;;;;5073538;28;20572;-86
2021/11/04 04:30:24;;;;;;;19.13;12.03;;;7.40;99.90;;;;;;5073526;28;20564;-87
2021/11/04 04:32:50;;;;;;;18.07;11.03;;;7.40;99.90;;;;;;5073370;28;20420;-86
2021/11/04 04:35:16;;;;;;;17.73;10.23;;;7.40;99.90;;;;;;5073246;28;20413;-86
2021/11/04 04:37:42;;;;;;;17.37;10.20;;;7.40;99.90;;;;;;5055022;28;20429;-86
2021/11/04 04:40:08;;;;;;;16.30;9.07;;;7.40;99.90;;;;;;5073292;28;20206;-87
2021/11/04 04:42:34;;;;;;;19.10;9.43;;;7.40;99.90;;;;;;5073386;28;20259;-87
2021/11/04 04:44:59;;;;;;;16.43;9.90;;;7.40;99.90;;;;;;5055259;28;20921;-88
2021/11/04 04:47:25;;;;;;;17.83;10.87;;;7.40;99.90;;;;;;5055268;28;20729;-88
2021/11/04 04:49:50;;;;;;;19.80;10.67;;;7.40;99.90;;;;;;5073307;28;20174;-89
2021/11/04 04:52:16;;;;;;;15.43;9.83;;;7.40;99.90;;;;;;5055368;28;20265;-88
2021/11/04 04:54:42;;;;;;;18.00;11.57;;;7.40;99.90;;;;;;5073155;28;20168;-90
2021/11/04 04:57:08;;;;;;;20.77;12.57;;;7.40;99.90;;;;;;5056026;28;20175;-89
2021/11/04 04:59:34;;;;;;;18.30;10.83;;;7.40;99.90;;;;;;5055727;28;20413;-90
2021/11/04 05:02:00;;;;;;;21.13;12.00;;;7.40;99.90;;;;;;5073368;28;20169;-89
2021/11/04 05:04:26;;;;;;;19.20;11.60;;;7.40;99.90;;;;;;5073360;28;20537;-89
2021/11/04 05:06:51;;;;;;;21.70;14.23;;;7.30;99.90;;;;;;5055493;28;20195;-89
2021/11/04 05:09:17;;;;;;;16.33;11.47;;;7.30;99.90;;;;;;5055369;28;20270;-90
2021/11/04 05:11:42;;;;;;;17.37;11.33;;;7.40;99.90;;;;;;5073388;28;20172;-90
2021/11/04 05:14:08;;;;;;;23.20;12.70;;;7.40;99.90;;;;;;5073435;28;20174;-89
2021/11/04 05:16:33;;;;;;;18.67;12.40;;;7.40;99.90;;;;;;5055751;28;20175;-88
2021/11/04 05:18:59;;;;;;;21.40;12.60;;;7.40;99.90;;;;;;5055503;28;20182;-89
2021/11/04 05:21:25;;;;;;;20.07;13.50;;;7.40;99.90;;;;;;5073721;28;20178;-90
2021/11/04 05:23:50;;;;;;;19.80;12.10;;;7.40;99.90;;;;;;5055273;28;20206;-88
2021/11/04 05:26:16;;;;;;;18.93;12.17;;;7.40;99.90;;;;;;5055815;28;20178;-89
2021/11/04 05:28:42;;;;;;;20.97;11.37;;;7.30;99.90;;;;;;5073455;28;20232;-89
2021/11/04 05:31:07;;;;;;;15.87;10.97;;;7.40;99.90;;;;;;5055492;28;20170;-90
2021/11/04 05:33:33;;;;;;;20.13;11.77;;;7.40;99.90;;;;;;5073083;28;20421;-89
2021/11/04 05:35:59;;;;;;;18.13;10.80;;;7.40;99.90;;;;;;5055323;28;20538;-90
2021/11/04 05:38:24;;;;;;;17.67;10.60;;;7.40;99.90;;;;;;5073250;28;20638;-90
2021/11/04 05:40:50;;;;;;;18.03;10.77;;;7.30;99.90;;;;;;5073502;28;20178;-87
2021/11/04 05:43:15;;;;;;;16.97;9.20;;;7.30;99.90;;;;;;5073083;28;20206;-89
2021/11/04 05:45:41;;;;;;;15.50;9.60;;;7.40;99.90;;;;;;5073033;28;20166;-88
2021/11/04 05:48:07;;;;;;;15.47;9.53;;;7.40;99.90;;;;;;5072771;28;20709;-87
2021/11/04 05:50:32;;;;;;;14.50;9.53;;;7.30;99.90;;;;;;5073268;28;20167;-89
2021/11/04 05:53:00;;;;;;;11.30;7.40;;;7.30;99.90;;;;;;5072728;28;20258;-89
2021/11/04 05:55:26;;;;;;;13.80;8.00;;;7.30;99.90;;;;;;5055126;28;20642;-87
2021/11/04 05:57:51;;;;;;;17.60;8.80;;;7.30;99.90;;;;;;5072609;28;20416;-87
2021/11/04 06:00:17;;;;;;;11.77;7.13;;;7.30;99.90;;;;;;5072329;28;20420;-87
2021/11/04 06:02:42;;;;;;;14.70;9.70;;;7.30;99.90;;;;;;5072438;28;20248;-88
2021/11/04 06:05:08;;;;;;;12.43;8.27;;;7.20;99.90;;;;;;5057739;28;20676;-88
2021/11/04 06:07:34;;;;;;;10.50;7.43;;;7.30;99.90;;;;;;5057768;28;20177;-88
2021/11/04 06:10:00;;;;;;;11.33;7.77;;;7.20;99.90;;;;;;5058176;28;20240;-87
2021/11/04 06:12:25;;;;;;;10.17;6.40;;;7.30;99.90;;;;;;5057977;28;20184;-88
2021/11/04 06:14:51;;;;;;;12.07;7.43;;;7.30;99.90;;;;;;5076120;28;20413;-88
2021/11/04 06:17:16;;;;;;;10.60;7.20;;;7.20;99.90;;;;;;5075914;28;20174;-88
2021/11/04 06:19:42;;;;;;;11.17;6.47;;;7.20;99.90;;;;;;5058295;28;20178;-88
2021/11/04 06:22:07;;;;;;;12.10;7.27;;;7.20;99.90;;;;;;5058163;28;20590;-88
2021/11/04 06:24:33;;;;;;;8.37;5.63;;;7.20;99.90;;;;;;5057198;28;20200;-89
2021/11/04 06:26:59;;;;;;;11.00;7.40;;;7.10;99.90;;;;;;5057439;28;20215;-89
2021/11/04 06:29:24;;;;;;;12.27;7.27;;;7.20;99.90;;;;;;5057639;28;20222;-89
2021/11/04 06:31:50;;;;;;;10.53;5.57;;;7.20;99.90;;;;;;5058477;28;20177;-89
2021/11/04 06:34:16;;;;;;;8.87;6.37;;;7.20;99.90;;;;;;5058129;28;20170;-90
2021/11/04 06:36:41;;;;;;;14.40;7.40;;;7.10;99.90;;;;;;5058361;28;20184;-89
2021/11/04 06:39:07;;;;;;;12.27;7.30;;;7.10;99.90;;;;;;5058157;28;20555;-89
2021/11/04 06:41:33;;;;;;;11.83;7.13;;;7.20;99.90;;;;;;5057992;28;20179;-88
2021/11/04 06:43:58;;;;;;;10.77;7.40;;;7.20;99.90;;;;;;5057960;28;20681;-89
2021/11/04 06:46:28;;;;;;;11.60;7.50;;;7.30;99.90;;;;;;5058055;28;20174;-90
2021/11/04 06:49:07;;;;;;;13.97;8.10;;;7.20;99.90;;;;;;5076187;28;20202;-90
2021/11/04 06:51:38;;;;;;;14.63;6.73;;;7.20;99.90;;;;;;5058687;28;20412;-89
2021/11/04 06:54:06;;;;;;;13.33;6.90;;;7.30;99.90;;;;;;5058115;28;20421;-89
2021/11/04 06:56:40;;;;;;;12.43;7.40;;;7.20;99.90;;;;;;5075772;28;20785;-90
2021/11/04 06:59:19;;;;;;;11.83;7.17;;;7.20;99.90;;;;;;5057874;28;20772;-89
2021/11/04 07:01:57;;;;;;;11.27;6.43;;;7.30;99.90;;;;;;5075716;28;20893;-90
2021/11/04 07:04:31;;;;;;;11.30;7.60;;;7.30;99.90;;;;;;5076008;28;20415;-91
2021/11/04 07:07:06;;;;;;;9.07;5.33;;;7.30;99.90;;;;;;5075919;28;20456;-91
2021/11/04 07:09:35;;;;;;;8.40;6.03;;;7.30;99.90;;;;;;5057879;28;20425;-90
2021/11/04 07:12:02;;;;;;;9.47;5.67;;;7.30;99.90;;;;;;5057852;28;20420;-91
2021/11/04 07:14:30;;;;;;;10.43;6.37;;;7.30;99.90;;;;;;5057426;28;20995;-90
2021/11/04 07:16:57;;;;;;;9.00;5.73;;;7.20;99.90;;;;;;5057476;28;20429;-90
2021/11/04 07:19:23;;;;;;;10.47;7.07;;;7.30;99.90;;;;;;5058425;28;20433;-91
2021/11/04 07:22:14;;;;;;;13.83;6.83;;;7.30;99.90;;;;;;5057493;28;20413;-88
2021/11/04 07:25:04;;;;;;;8.93;5.40;;;7.30;99.90;;;;;;5057562;28;20428;-88
2021/11/04 07:27:38;;;;;;;11.40;7.10;;;7.30;99.90;;;;;;5075012;28;20420;-88
2021/11/04 07:30:10;;;;;;;12.43;6.33;;;7.40;99.90;;;;;;5056962;28;20835;-87
2021/11/04 07:32:46;;;;;;;10.53;6.70;;;7.40;99.90;;;;;;5074733;28;20402;-87
2021/11/04 07:35:15;;;;;;;12.13;6.70;;;7.40;99.90;;;;;;5056552;28;20424;-88
2021/11/04 07:37:43;;;;;;;11.90;6.53;;;7.40;99.90;;;;;;5074313;28;20409;-88
2021/11/04 07:40:10;;;;;;;12.57;7.60;;;7.40;99.90;;;;;;5074754;28;20417;-88
2021/11/04 07:42:37;;;;;;;14.20;7.80;;;7.40;99.90;;;;;;5056758;28;20519;-89
2021/11/04 07:45:03;;;;;;;14.17;7.40;;;7.50;99.90;;;;;;5074679;28;20460;-88
2021/11/04 07:47:29;;;;;;;10.77;6.57;;;7.50;99.90;;;;;;5056405;28;20464;-88
2021/11/04 07:49:55;;;;;;;11.37;6.40;;;7.60;99.90;;;;;;5074669;28;20409;-89
2021/11/04 07:52:20;;;;;;;17.20;7.17;;;7.60;99.90;;;;;;5073663;28;20188;-88
2021/11/04 07:54:46;;;;;;;11.50;6.80;;;7.60;99.90;;;;;;5056095;28;20198;-88
2021/11/04 07:57:12;;;;;;;13.70;7.53;;;7.70;99.90;;;;;;5073853;28;20228;-88
2021/11/04 07:59:38;;;;;;;15.87;8.00;;;7.70;99.90;;;;;;5074350;28;20413;-89
2021/11/04 08:02:04;;;;;;;13.07;7.13;;;7.70;99.90;;;;;;5070607;28;20560;-88
2021/11/04 08:04:30;;;;;;;11.27;6.53;;;7.80;99.90;;;;;;5074005;28;20425;-87
2021/11/04 08:06:56;;;;;;;11.20;6.30;;;7.70;99.90;;;;;;5073647;28;20410;-87
2021/11/04 08:09:23;;;;;;;10.57;6.20;;;7.80;99.90;;;;;;5074110;28;20187;-88
2021/11/04 08:11:49;;;;;;;10.70;5.60;;;7.80;99.90;;;;;;5072706;28;20415;-91
2021/11/04 08:14:15;;;;;;;13.00;6.90;;;7.80;99.90;;;;;;5074249;28;20444;-87
2021/11/04 08:16:41;;;;;;;11.07;5.83;;;7.80;99.90;;;;;;5073681;28;20415;-86
2021/11/04 08:19:06;;;;;;;13.40;6.10;;;7.80;99.90;;;;;;5073791;28;20428;-89
2021/11/04 08:21:32;;;;;;;12.80;6.23;;;7.80;99.90;;;;;;5074318;28;20172;-88
2021/11/04 08:23:58;;;;;;;13.10;6.73;;;7.80;99.90;;;;;;5074002;28;20659;-91
2021/11/04 08:26:23;;;;;;;11.93;7.10;;;7.80;99.90;;;;;;5072824;28;20517;-89
2021/11/04 08:28:50;;;;;;;11.67;6.73;;;7.80;99.90;;;;;;5072603;28;20636;-90
2021/11/04 08:31:16;;;;;;;11.90;6.67;;;7.80;99.90;;;;;;5072882;28;20225;-89
2021/11/04 08:33:41;;;;;;;12.70;8.53;;;7.90;99.90;;;;;;5072986;28;20417;-88
2021/11/04 08:36:07;;;;;;;12.63;7.57;;;7.80;99.90;;;;;;5072943;28;20207;-88
2021/11/04 08:38:32;;;;;;;13.00;8.20;;;7.80;99.90;;;;;;5072695;28;20172;-90
2021/11/04 08:40:58;;;;;;;13.73;7.07;;;7.90;99.90;;;;;;5073965;28;20171;-89
2021/11/04 08:43:24;;;;;;;13.80;7.50;;;7.90;99.90;;;;;;5073583;28;20646;-88
2021/11/04 08:45:49;;;;;;;15.30;7.67;;;7.90;99.90;;;;;;5073733;28;20198;-87
2021/11/04 08:48:18;;;;;;;11.40;6.33;;;8.00;99.90;;;;;;5073170;28;20687;-87
2021/11/04 08:50:44;;;;;;;13.53;8.20;;;8.00;99.90;;;;;;5055313;28;20202;-88
2021/11/04 08:53:10;;;;;;;13.40;7.87;;;8.00;99.90;;;;;;5054949;28;20426;-87
2021/11/04 08:55:37;;;;;;;15.43;7.77;;;8.00;99.90;;;;;;5073261;28;20414;-88
2021/11/04 08:58:02;;;;;;;11.37;7.97;;;8.00;99.90;;;;;;5073271;28;20411;-87
2021/11/04 09:00:28;;;;;;;13.17;7.83;;;8.00;99.90;;;;;;5073665;28;20839;-88
2021/11/04 09:02:54;;;;;;;13.37;8.43;;;8.00;99.90;;;;;;5073269;28;20236;-88
2021/11/04 09:05:19;;;;;;;9.77;5.93;;;8.00;99.90;;;;;;5055035;28;20190;-87
2021/11/04 09:07:45;;;;;;;11.43;7.70;;;8.00;99.90;;;;;;5054571;28;20183;-85
2021/11/04 09:10:14;;;;;;;13.30;8.50;;;8.00;99.90;;;;;;5072855;28;20172;-87
2021/11/04 09:12:41;;;;;;;18.40;6.90;;;8.00;99.90;;;;;;5072917;28;20216;-88
2021/11/04 09:15:09;;;;;;;11.63;8.13;;;8.10;99.90;;;;;;5066420;28;20433;-87
2021/11/04 09:17:35;;;;;;;13.10;8.70;;;8.00;99.90;;;;;;5071603;28;20504;-87
2021/11/04 09:20:01;;;;;;;12.67;7.73;;;8.10;99.90;;;;;;5071639;28;20501;-88
2021/11/04 09:22:27;;;;;;;11.43;7.00;;;8.10;99.90;;;;;;5072460;28;20195;-87
2021/11/04 09:24:53;;;;;;;12.53;6.60;;;8.10;99.90;;;;;;5071704;28;20179;-87
2021/11/04 09:27:19;;;;;;;12.13;7.30;;;8.20;99.90;;;;;;5072788;28;20570;-88
2021/11/04 09:29:46;;;;;;;12.97;8.00;;;8.20;99.90;;;;;;5072831;28;20417;-87
2021/11/04 09:32:12;;;;;;;15.07;7.60;;;8.20;99.90;;;;;;5072198;28;20172;-90
2021/11/04 09:34:39;;;;;;;11.80;7.97;;;8.20;99.90;;;;;;5055675;28;20442;-88
2021/11/04 09:37:10;;;;;;;14.53;7.37;;;8.20;99.90;;;;;;5048254;28;20433;-87
2021/11/04 09:39:36;;;;;;;13.30;8.47;;;8.60;99.90;;;;;;5058603;28;20421;-89
2021/11/04 09:42:03;;;;;;;13.13;7.03;;;8.60;99.90;;;;;;5067262;28;20417;-91
2021/11/04 09:44:29;;;;;;;11.40;8.13;;;8.50;99.90;;;;;;5061074;28;20465;-89
2021/11/04 09:46:55;;;;;;;14.43;8.27;;;8.40;99.90;;;;;;5059345;28;20470;-89
2021/11/04 09:49:21;;;;;;;10.10;7.50;;;8.40;99.90;;;;;;5059428;28;20429;-90
2021/11/04 09:51:47;;;;;;;12.17;7.80;;;8.40;99.90;;;;;;5058743;28;20508;-90
2021/11/04 09:54:13;;;;;;;12.53;6.83;;;8.40;99.90;;;;;;5075432;28;20430;-89
2021/11/04 09:56:39;;;;;;;11.73;7.30;;;8.60;99.90;;;;;;5079679;28;20172;-89
2021/11/04 09:59:05;;;;;;;13.90;6.70;;;8.60;99.90;;;;;;5059734;28;20183;-89
2021/11/04 10:01:33;;;;;;;11.03;7.13;;;8.60;99.90;;;;;;5059584;28;20675;-90
2021/11/04 10:04:01;;;;;;;15.60;9.10;;;8.60;99.90;;;;;;5076851;28;20510;-89
2021/11/04 10:06:32;;;;;;;13.73;7.87;;;8.60;99.90;;;;;;5059083;28;20418;-90
2021/11/04 10:09:00;;;;;;;10.27;7.30;;;8.60;99.90;;;;;;5059039;28;20437;-90
2021/11/04 10:11:34;;;;;;;15.10;6.50;;;8.60;99.90;;;;;;5058911;28;20473;-90
2021/11/04 10:14:03;;;;;;;13.00;8.13;;;8.60;99.90;;;;;;5076946;28;20418;-89
2021/11/04 10:16:30;;;;;;;10.47;6.60;;;8.70;99.90;;;;;;5059145;28;20931;-90
2021/11/04 10:18:55;;;;;;;11.13;7.33;;;8.60;99.90;;;;;;5058999;28;20423;-90
2021/11/04 10:21:26;;;;;;;12.43;7.63;;;8.70;99.90;;;;;;5058899;28;20748;-89
2021/11/04 10:23:52;;;;;;;11.33;7.67;;;8.70;99.90;;;;;;5076503;28;20829;-90
2021/11/04 10:26:23;;;;;;;12.70;7.43;;;8.70;99.90;;;;;;5059125;28;20425;-90
2021/11/04 10:28:57;;;;;;;9.60;8.03;;;8.60;99.90;;;;;;5076972;28;20928;-89
2021/11/04 10:31:22;;;;;;;14.80;9.20;;;8.70;99.90;;;;;;5058828;28;20411;-90
2021/11/04 10:33:50;;;;;;;16.93;9.10;;;8.70;99.90;;;;;;5058754;28;20509;-90
2021/11/04 10:36:21;;;;;;;13.57;7.90;;;8.70;99.90;;;;;;5058844;28;20213;-90
2021/11/04 10:38:54;;;;;;;11.97;7.93;;;8.80;99.90;;;;;;5076015;28;20467;-90
2021/11/04 10:41:35;;;;;;;13.07;8.40;;;8.70;99.90;;;;;;5058509;28;20426;-88
2021/11/04 10:44:15;;;;;;;15.90;9.57;;;8.70;99.90;;;;;;5058607;28;20478;-90
2021/11/04 10:46:50;;;;;;;13.93;7.60;;;8.80;99.90;;;;;;5076261;28;20449;-90
2021/11/04 10:49:19;;;;;;;14.83;8.80;;;8.80;99.90;;;;;;5058158;28;20454;-89
2021/11/04 10:51:44;;;;;;;17.60;10.00;;;8.80;99.90;;;;;;5075859;28;20400;-89
2021/11/04 10:54:13;;;;;;;13.80;9.00;;;8.90;99.90;;;;;;5058418;28;20416;-90
2021/11/04 10:56:41;;;;;;;13.70;8.50;;;8.80;99.90;;;;;;5058565;28;20208;-90
2021/11/04 10:59:11;;;;;;;15.07;8.73;;;8.90;99.90;;;;;;5058781;28;20505;-88
2021/11/04 11:01:45;;;;;;;17.43;9.00;;;8.80;99.90;;;;;;5058540;28;20536;-90
2021/11/04 11:04:19;;;;;;;12.97;8.60;;;8.90;99.90;;;;;;5058730;28;20478;-90
2021/11/04 11:06:53;;;;;;;15.47;9.63;;;8.90;99.90;;;;;;5076333;28;20403;-91
2021/11/04 11:09:22;;;;;;;14.40;9.43;;;8.80;99.90;;;;;;5076332;28;20422;-90
2021/11/04 11:11:51;;;;;;;14.10;9.50;;;8.80;99.90;;;;;;5058363;28;21159;-90
2021/11/04 11:14:17;;;;;;;16.73;10.57;;;8.80;99.90;;;;;;5075870;28;20422;-91
2021/11/04 11:16:48;;;;;;;17.13;9.70;;;8.90;99.90;;;;;;5058140;28;20497;-91
2021/11/04 11:19:27;;;;;;;15.07;10.10;;;8.90;99.90;;;;;;5075816;28;20406;-90
2021/11/04 11:21:54;;;;;;;15.20;9.07;;;8.90;99.90;;;;;;5075688;28;20401;-91
2021/11/04 11:24:49;;;;;;;12.90;9.90;;;8.90;99.90;;;;;;5075632;28;20464;-89
2021/11/04 11:27:17;;;;;;;12.07;8.53;;;8.80;99.90;;;;;;5044937;28;20427;-91
2021/11/04 11:29:46;;;;;;;14.57;9.20;;;8.80;99.90;;;;;;5075581;28;20426;-90
2021/11/04 11:32:38;;;;;;;15.53;8.50;;;8.80;99.90;;;;;;5075642;28;20908;-90
2021/11/04 11:35:25;;;;;;;11.93;7.63;;;8.80;99.90;;;;;;5072464;28;20427;-91
2021/11/04 11:38:07;;;;;;;14.07;9.20;;;8.80;99.90;;;;;;5057141;28;20861;-90
2021/11/04 11:40:37;;;;;;;13.57;9.87;;;8.80;99.90;;;;;;5057639;28;20461;-90
2021/11/04 11:43:14;;;;;;;12.27;8.47;;;8.80;99.90;;;;;;5075320;28;20501;-91
2021/11/04 11:45:42;;;;;;;12.50;8.40;;;8.80;99.90;;;;;;5075378;28;20415;-90
2021/11/04 11:48:20;;;;;;;13.33;8.23;;;8.70;99.90;;;;;;5057015;28;20872;-89
2021/11/04 11:50:47;;;;;;;14.47;8.73;;;8.80;99.90;;;;;;5057018;28;20413;-87
2021/11/04 11:53:37;;;;;;;14.83;9.47;;;8.80;99.90;;;;;;5056735;28;20426;-88
2021/11/04 11:56:03;;;;;;;14.33;8.13;;;8.80;99.90;;;;;;5075051;28;20906;-90
2021/11/04 11:58:46;;;;;;;15.07;8.53;;;8.80;99.90;;;;;;5057209;28;20418;-90
2021/11/04 12:01:15;;;;;;;12.00;8.00;;;8.80;99.90;;;;;;5056452;28;20440;-89
2021/11/04 12:03:43;;;;;;;16.77;11.00;;;8.80;99.90;;;;;;5074732;28;20859;-90
2021/11/04 12:06:12;;;;;;;15.07;7.70;;;8.70;99.90;;;;;;5057169;28;20501;-90
2021/11/04 12:08:52;;;;;;;15.00;8.30;;;8.80;99.90;;;;;;5074902;28;20425;-90
2021/11/04 12:11:42;;;;;;;11.67;7.93;;;8.70;99.90;;;;;;5056808;28;20567;-90
2021/11/04 12:14:19;;;;;;;13.97;8.13;;;8.80;99.90;;;;;;5074697;28;20504;-89
2021/11/04 12:17:03;;;;;;;13.50;9.10;;;8.80;99.90;;;;;;5074607;28;20445;-91
2021/11/04 12:19:53;;;;;;;14.80;9.20;;;8.80;99.90;;;;;;5056539;28;20794;-89
2021/11/04 12:22:18;;;;;;;14.13;7.70;;;8.80;99.90;;;;;;5074072;28;20425;-90
2021/11/04 12:24:54;;;;;;;12.63;9.53;;;8.80;99.90;;;;;;5074464;28;20423;-89
2021/11/04 12:27:21;;;;;;;12.77;6.27;;;8.70;99.90;;;;;;5055773;28;20642;-91
2021/11/04 12:29:52;;;;;;;11.87;6.77;;;8.70;99.90;;;;;;5051241;28;20863;-89
2021/11/04 12:32:24;;;;;;;17.33;7.50;;;8.70;99.90;;;;;;5067443;28;20445;-94
2021/11/04 12:35:03;;;;;;;12.87;6.77;;;8.70;99.90;;;;;;5059089;28;20879;-93
2021/11/04 12:37:31;;;;;;;12.30;8.83;;;8.70;99.90;;;;;;5057703;28;20418;-91
2021/11/04 12:40:02;;;;;;;12.07;6.67;;;8.70;99.90;;;;;;5056610;28;20422;-92
2021/11/04 12:42:28;;;;;;;11.93;7.80;;;8.80;99.90;;;;;;5074451;28;20414;-93
2021/11/04 12:44:54;;;;;;;10.80;6.33;;;8.70;99.90;;;;;;5056707;28;20441;-94
2021/11/04 12:47:27;;;;;;;9.20;5.90;;;8.70;99.90;;;;;;5056359;28;20266;-94